Time;durP1;ratioP1;P1;durP2;ratioP2;P2;SDS_P1;SDS_P2;PMS_P1;PMS_P2;Temp;Humidity;BMP_temperature;BMP_pressure;BME280_temperature;BME280_humidity;BME280_pressure;Samples;Min_cycle;Max_cycle;Signal;HPM_P1;HPM_P2
2022/07/09 00:01:37;;;;;;;5.05;2.15;;;;;;;15.45;75.99;101883.06;5068841;28;20039;-73
2022/07/09 00:04:40;;;;;;;3.75;1.60;;;;;;;15.48;75.64;101876.78;5063531;28;20068;-73
2022/07/09 00:07:44;;;;;;;6.45;2.22;;;;;;;15.30;76.48;101889.97;5047638;28;20095;-73
2022/07/09 00:10:47;;;;;;;5.10;1.60;;;;;;;15.54;75.41;101873.84;5045232;28;20036;-73
2022/07/09 00:13:50;;;;;;;4.30;1.88;;;;;;;15.51;75.28;101871.38;5048520;28;20051;-73
2022/07/09 00:16:54;;;;;;;6.55;1.95;;;;;;;15.45;76.03;101882.22;5048815;28;20052;-73
2022/07/09 00:19:57;;;;;;;4.93;2.42;;;;;;;15.36;76.13;101886.16;5049428;28;20039;-73
2022/07/09 00:23:01;;;;;;;3.75;1.45;;;;;;;15.39;76.21;101877.25;5048363;28;20741;-73
2022/07/09 00:26:04;;;;;;;3.92;1.40;;;;;;;15.25;76.62;101877.94;5048440;28;20043;-73
2022/07/09 00:29:08;;;;;;;4.88;2.05;;;;;;;15.32;76.27;101876.72;5048722;28;20033;-73
2022/07/09 00:32:12;;;;;;;7.28;2.00;;;;;;;15.21;76.75;101868.50;5048150;28;20043;-73
2022/07/09 00:35:15;;;;;;;4.35;2.08;;;;;;;15.32;76.09;101867.03;5048561;28;20408;-73
2022/07/09 00:38:19;;;;;;;5.10;2.05;;;;;;;15.10;76.90;101877.78;5047911;28;20044;-73
2022/07/09 00:41:21;;;;;;;;;;;;;;;15.17;76.64;101872.22;5053399;28;20118;-73
2022/07/09 00:44:25;;;;;;;;;;;;;;;15.07;76.57;101870.03;5052771;28;19920;-73
2022/07/09 00:47:28;;;;;;;4.53;1.58;;;;;;;15.06;76.93;101868.34;5052416;28;19967;-73
2022/07/09 00:50:31;;;;;;;5.55;1.98;;;;;;;14.97;77.19;101874.06;5042779;28;20515;-73
2022/07/09 00:53:35;;;;;;;4.10;1.50;;;;;;;14.89;77.53;101863.03;5044205;28;20511;-73
2022/07/09 00:56:39;;;;;;;8.07;2.65;;;;;;;15.04;76.19;101859.66;5052939;28;20099;-73
2022/07/09 00:59:43;;;;;;;5.80;2.05;;;;;;;14.90;76.80;101859.50;5052318;28;20056;-73
2022/07/09 01:02:49;;;;;;;5.75;2.15;;;;;;;14.83;77.18;101852.81;5051730;28;20059;-73
2022/07/09 01:05:52;;;;;;;4.00;1.95;;;;;;;14.91;76.94;101855.09;5051556;28;20052;-73
2022/07/09 01:08:56;;;;;;;4.53;2.30;;;;;;;14.89;76.79;101852.50;5032396;28;20088;-73
2022/07/09 01:11:59;;;;;;;3.92;1.90;;;;;;;14.92;76.99;101857.63;5032335;28;20043;-73
2022/07/09 01:15:04;;;;;;;3.53;2.10;;;;;;;14.70;78.00;101846.44;5031940;28;20052;-73
2022/07/09 01:18:12;;;;;;;3.70;2.08;;;;;;;14.67;78.47;101851.84;5032561;28;20107;-73
2022/07/09 01:21:15;;;;;;;4.70;1.90;;;;;;;14.76;77.53;101854.88;5043869;28;20071;-73
2022/07/09 01:24:19;;;;;;;3.47;1.88;;;;;;;14.78;77.36;101862.72;5039385;28;20052;-73
2022/07/09 01:27:22;;;;;;;4.22;2.30;;;;;;;14.71;77.38;101853.41;5050870;28;20040;-73
2022/07/09 01:30:27;;;;;;;3.70;1.67;;;;;;;14.97;76.37;101850.34;5050704;28;20044;-73
2022/07/09 01:33:31;;;;;;;5.45;1.70;;;;;;;15.05;75.92;101850.81;5051538;28;20111;-73
2022/07/09 01:36:35;;;;;;;4.90;2.13;;;;;;;14.85;76.38;101843.91;5050678;28;20141;-73
2022/07/09 01:39:49;;;;;;;5.75;2.30;;;;;;;14.64;77.36;101843.19;5051283;28;20462;-73
2022/07/09 01:42:53;;;;;;;6.53;1.85;;;;;;;14.81;76.99;101831.81;5051035;28;20095;-73
2022/07/09 01:45:56;;;;;;;2.80;1.77;;;;;;;14.89;76.09;101836.72;5050593;28;20135;-73
2022/07/09 01:48:59;;;;;;;4.47;1.70;;;;;;;14.68;77.04;101829.84;5051039;28;21549;-73
2022/07/09 01:52:04;;;;;;;6.22;2.00;;;;;;;14.83;76.54;101829.94;5036385;28;20509;-73
2022/07/09 01:55:07;;;;;;;4.85;2.17;;;;;;;14.87;76.36;101828.06;5007677;28;20392;-73
2022/07/09 01:58:11;;;;;;;4.85;2.08;;;;;;;14.58;77.25;101827.69;5030968;28;20056;-73
2022/07/09 02:01:14;;;;;;;6.55;2.35;;;;;;;14.62;76.93;101821.34;5031672;28;20507;-73
2022/07/09 02:04:18;;;;;;;3.25;1.98;;;;;;;14.55;77.40;101817.31;5037111;28;20577;-73
2022/07/09 02:07:21;;;;;;;5.20;1.95;;;;;;;14.34;78.03;101808.63;5050724;28;20044;-73
2022/07/09 02:10:24;;;;;;;5.60;2.00;;;;;;;14.46;77.71;101814.25;5050012;28;20105;-73
2022/07/09 02:13:28;;;;;;;4.25;2.75;;;;;;;14.31;78.09;101807.91;5050460;28;20062;-73
2022/07/09 02:16:31;;;;;;;7.00;2.75;;;;;;;14.36;77.76;101805.94;5049378;28;20094;-73
2022/07/09 02:19:35;;;;;;;5.35;2.10;;;;;;;14.53;76.71;101803.34;5050598;28;20139;-73
2022/07/09 02:22:38;;;;;;;4.07;2.05;;;;;;;14.32;77.54;101806.97;5038622;28;20099;-73
2022/07/09 02:25:41;;;;;;;6.85;2.40;;;;;;;14.26;77.70;101802.00;5051147;28;20051;-73
2022/07/09 02:28:45;;;;;;;4.63;2.22;;;;;;;14.33;77.54;101799.03;5050195;28;20487;-73
2022/07/09 02:31:48;;;;;;;3.80;1.80;;;;;;;14.45;77.23;101788.81;5050514;28;20098;-75
2022/07/09 02:34:51;;;;;;;4.75;1.80;;;;;;;14.41;77.10;101799.50;5050443;28;20491;-75
2022/07/09 02:37:55;;;;;;;5.70;2.08;;;;;;;14.54;76.18;101798.94;5050492;28;20051;-74
2022/07/09 02:40:58;;;;;;;4.85;2.03;;;;;;;14.53;76.12;101798.09;5051226;28;20071;-74
2022/07/09 02:44:01;;;;;;;8.10;2.50;;;;;;;14.26;77.23;101789.69;5050682;28;20048;-75
2022/07/09 02:47:05;;;;;;;4.03;1.88;;;;;;;14.25;77.27;101790.63;5049011;28;20102;-75
2022/07/09 02:50:09;;;;;;;4.07;2.08;;;;;;;14.09;78.04;101787.03;5049890;28;20044;-75
2022/07/09 02:53:13;;;;;;;6.00;2.00;;;;;;;14.16;77.54;101789.28;5040497;28;20110;-75
2022/07/09 02:56:16;;;;;;;4.22;2.15;;;;;;;14.12;77.82;101797.41;5030260;28;20522;-75
2022/07/09 02:59:20;;;;;;;4.32;1.95;;;;;;;14.18;77.64;101792.72;5030028;28;20053;-75
2022/07/09 03:02:23;;;;;;;4.93;2.08;;;;;;;14.41;76.92;101788.13;5031333;28;20083;-75
2022/07/09 03:05:27;;;;;;;3.50;1.83;;;;;;;14.13;77.59;101788.56;5049107;28;20056;-75
2022/07/09 03:08:30;;;;;;;3.97;2.08;;;;;;;14.36;76.36;101787.50;5049004;28;20451;-75
2022/07/09 03:11:33;;;;;;;4.13;1.70;;;;;;;14.54;75.59;101784.00;5049785;28;20040;-74
2022/07/09 03:14:36;;;;;;;5.00;1.92;;;;;;;14.46;75.56;101782.66;5050408;28;20047;-74
2022/07/09 03:17:40;;;;;;;4.35;2.17;;;;;;;14.43;75.69;101781.88;5029846;28;20099;-74
2022/07/09 03:20:43;;;;;;;3.67;2.03;;;;;;;14.21;76.74;101788.25;5037951;28;20043;-74
2022/07/09 03:23:46;;;;;;;3.30;1.70;;;;;;;14.01;77.30;101786.50;5049735;28;20051;-75
2022/07/09 03:26:50;;;;;;;4.80;2.17;;;;;;;14.08;77.56;101783.56;5049655;28;20043;-75
2022/07/09 03:29:53;;;;;;;4.78;2.03;;;;;;;14.14;77.07;101775.38;5048743;28;20542;-75
2022/07/09 03:32:57;;;;;;;3.25;1.70;;;;;;;14.16;76.84;101777.91;5048540;28;20051;-75
2022/07/09 03:36:00;;;;;;;5.53;2.22;;;;;;;14.01;77.53;101774.25;5048855;28;20049;-75
2022/07/09 03:39:04;;;;;;;5.30;2.20;;;;;;;13.87;78.29;101787.16;5048465;28;20052;-76
2022/07/09 03:42:07;;;;;;;4.53;1.92;;;;;;;13.83;78.75;101780.34;5048862;28;20472;-76
2022/07/09 03:45:11;;;;;;;4.35;2.30;;;;;;;13.73;79.60;101780.78;5048598;28;20086;-75
2022/07/09 03:48:14;;;;;;;8.00;2.10;;;;;;;14.02;78.22;101775.09;5048899;28;20491;-76
2022/07/09 03:51:18;;;;;;;4.70;2.20;;;;;;;13.94;78.46;101776.31;5049518;28;20540;-75
2022/07/09 03:54:22;;;;;;;5.25;2.10;;;;;;;14.12;77.33;101781.63;5045433;28;20052;-76
2022/07/09 03:57:25;;;;;;;4.47;2.47;;;;;;;14.15;76.69;101778.84;5029182;28;20103;-76
2022/07/09 04:00:28;;;;;;;4.45;2.17;;;;;;;14.06;77.43;101780.13;5016569;28;20657;-76
2022/07/09 04:03:31;;;;;;;4.32;2.38;;;;;;;14.25;77.13;101774.00;5029176;28;20048;-76
2022/07/09 04:06:34;;;;;;;;;;;;;;;14.36;76.40;101779.63;5029879;28;20225;-76
2022/07/09 04:09:38;;;;;;;4.80;2.05;;;;;;;14.44;75.43;101785.34;5029108;28;19920;-76
2022/07/09 04:12:42;;;;;;;6.10;1.95;;;;;;;14.37;75.78;101774.25;5033377;28;20099;-76
2022/07/09 04:15:45;;;;;;;6.55;2.50;;;;;;;14.40;75.70;101781.16;5048622;28;20036;-76
2022/07/09 04:18:49;;;;;;;3.67;1.77;;;;;;;14.50;75.44;101781.56;5048613;28;20442;-76
2022/07/09 04:21:52;;;;;;;5.32;2.08;;;;;;;14.37;76.30;101781.31;5046715;28;20039;-75
2022/07/09 04:24:56;;;;;;;5.72;2.10;;;;;;;14.13;77.20;101784.16;5028746;28;20582;-75
2022/07/09 04:27:59;;;;;;;3.65;1.80;;;;;;;14.31;76.75;101781.59;5041327;28;20040;-75
2022/07/09 04:31:03;;;;;;;4.78;2.33;;;;;;;14.40;76.13;101781.16;5048248;28;20067;-76
2022/07/09 04:34:07;;;;;;;6.75;2.15;;;;;;;14.39;76.62;101784.72;5048787;28;20428;-76
2022/07/09 04:37:10;;;;;;;5.18;2.03;;;;;;;14.41;76.72;101777.59;5048958;28;20107;-76
2022/07/09 04:40:14;;;;;;;6.80;2.10;;;;;;;14.35;76.79;101788.41;5048177;28;20102;-76
2022/07/09 04:43:17;;;;;;;4.10;1.92;;;;;;;14.23;76.79;101789.00;5048338;28;20503;-76
2022/07/09 04:46:25;;;;;;;5.97;3.00;;;;;;;14.36;76.67;101787.50;5049440;28;20086;-76
2022/07/09 04:49:28;;;;;;;5.35;2.10;;;;;;;14.34;76.26;101797.25;5049002;28;20098;-76
2022/07/09 04:52:32;;;;;;;4.20;2.10;;;;;;;14.29;76.16;101788.72;5048925;28;20055;-76
2022/07/09 04:55:35;;;;;;;3.72;2.08;;;;;;;14.35;76.01;101785.78;5039580;28;20133;-75
2022/07/09 04:58:51;;;;;;;6.03;2.20;;;;;;;14.37;76.17;101782.16;5027054;28;20049;-76
2022/07/09 05:01:54;;;;;;;4.97;2.53;;;;;;;14.29;76.71;101783.44;5026663;28;20044;-75
2022/07/09 05:04:58;;;;;;;5.78;2.10;;;;;;;14.32;76.79;101778.03;5035119;28;20203;-75
2022/07/09 05:08:01;;;;;;;4.03;2.05;;;;;;;14.46;76.65;101778.25;5048616;28;20507;-75
2022/07/09 05:11:06;;;;;;;3.80;1.80;;;;;;;14.64;76.13;101769.47;5061817;28;20054;-75
2022/07/09 05:14:10;;;;;;;4.68;2.15;;;;;;;14.72;75.82;101777.00;5069436;28;20048;-76
2022/07/09 05:17:14;;;;;;;4.57;2.38;;;;;;;14.71;76.01;101772.66;4686767;28;10001213;-75
2022/07/09 05:20:18;;;;;;;4.18;2.05;;;;;;;14.78;75.63;101773.22;5062814;28;20063;-75
2022/07/09 05:23:21;;;;;;;3.67;2.03;;;;;;;14.71;76.22;101772.66;5064404;28;20083;-75
2022/07/09 05:26:29;;;;;;;4.05;2.10;;;;;;;14.67;76.19;101778.97;5039569;28;20048;-76
2022/07/09 05:29:32;;;;;;;4.03;2.22;;;;;;;14.53;77.18;101771.78;5064285;28;20403;-75
2022/07/09 05:32:36;;;;;;;4.93;2.40;;;;;;;14.13;79.37;101781.53;5069751;28;20438;-75
2022/07/09 05:35:40;;;;;;;7.63;2.30;;;;;;;14.25;79.52;101776.63;5071892;28;20047;-75
2022/07/09 05:38:45;;;;;;;;;;;;;;;14.24;79.69;101778.41;5070062;28;20043;-75
2022/07/09 05:41:52;;;;;;;5.22;2.10;;;;;;;14.22;79.75;101772.38;5070066;28;19962;-75
2022/07/09 05:44:56;;;;;;;4.25;2.70;;;;;;;14.52;78.70;101775.34;5070834;28;20424;-75
2022/07/09 05:48:02;;;;;;;3.92;2.35;;;;;;;14.56;78.72;101776.03;5070345;28;20071;-75
2022/07/09 05:51:06;;;;;;;3.00;1.70;;;;;;;14.77;78.44;101768.84;5067477;28;20043;-75
2022/07/09 05:54:09;;;;;;;5.20;2.13;;;;;;;15.04;77.58;101777.16;5067125;28;20459;-76
2022/07/09 05:57:13;;;;;;;6.30;2.75;;;;;;;15.14;77.36;101777.53;5070839;28;20051;-75
2022/07/09 06:00:17;;;;;;;3.92;2.30;;;;;;;15.22;77.34;101781.47;5071889;28;20513;-75
2022/07/09 06:03:21;;;;;;;5.93;2.38;;;;;;;15.08;78.12;101782.16;5071611;28;20048;-75
2022/07/09 06:06:24;;;;;;;4.88;2.45;;;;;;;15.28;77.63;101782.91;5071687;28;20055;-76
2022/07/09 06:09:28;;;;;;;3.63;1.70;;;;;;;15.56;76.60;101790.25;5051471;28;20043;-75
2022/07/09 06:12:33;;;;;;;4.50;2.15;;;;;;;15.76;75.37;101776.88;5051319;28;20072;-75
2022/07/09 06:15:39;;;;;;;3.88;2.13;;;;;;;15.96;75.17;101773.16;5051240;28;20067;-75
2022/07/09 06:18:49;;;;;;;6.25;2.25;;;;;;;16.14;74.92;101765.16;5050818;28;20407;-75
2022/07/09 06:21:52;;;;;;;6.97;1.90;;;;;;;16.20;74.64;101770.09;5058945;28;20075;-75
2022/07/09 06:24:56;;;;;;;5.47;2.28;;;;;;;16.35;74.01;101774.50;5070711;28;20475;-75
2022/07/09 06:27:59;;;;;;;4.72;1.65;;;;;;;16.51;73.70;101771.84;5056107;28;20562;-75
2022/07/09 06:31:03;;;;;;;3.85;1.60;;;;;;;16.49;74.27;101766.63;5068434;28;20039;-75
2022/07/09 06:34:07;;;;;;;3.83;2.00;;;;;;;16.67;73.50;101763.88;5070153;28;21190;-75
2022/07/09 06:37:11;;;;;;;5.38;1.83;;;;;;;16.85;73.75;101762.84;5069162;28;20044;-76
2022/07/09 06:40:14;;;;;;;5.45;2.22;;;;;;;17.05;72.50;101763.47;5069930;28;20128;-75
2022/07/09 06:43:18;;;;;;;2.72;1.38;;;;;;;17.24;71.96;101758.75;5070506;28;20039;-75
2022/07/09 06:46:23;;;;;;;7.82;1.90;;;;;;;17.38;72.92;101752.63;5058640;28;20494;-74
2022/07/09 06:49:27;;;;;;;7.13;2.15;;;;;;;17.53;72.98;101756.97;5070681;28;20098;-75
2022/07/09 06:52:30;;;;;;;5.93;2.08;;;;;;;17.62;72.08;101740.53;5070008;28;20047;-75
2022/07/09 06:55:34;;;;;;;6.38;1.77;;;;;;;17.78;71.78;101751.03;5069646;28;20051;-74
2022/07/09 06:58:37;;;;;;;4.25;1.98;;;;;;;17.94;71.17;101758.00;5070026;28;20666;-74
2022/07/09 07:01:41;;;;;;;6.40;1.98;;;;;;;18.06;71.36;101747.47;5058140;28;20123;-74
2022/07/09 07:04:44;;;;;;;9.13;2.38;;;;;;;18.05;69.83;101745.75;5069396;28;20071;-74
2022/07/09 07:07:47;;;;;;;6.57;2.80;;;;;;;18.25;68.77;101755.09;5070343;28;20044;-75
2022/07/09 07:10:51;;;;;;;9.05;2.30;;;;;;;18.41;68.95;101751.41;5069001;28;20039;-75
2022/07/09 07:13:56;;;;;;;11.15;3.90;;;;;;;18.48;68.13;101755.38;5069951;28;20550;-75
2022/07/09 07:17:00;;;;;;;10.73;3.72;;;;;;;18.63;68.25;101756.97;5068246;28;20108;-75
2022/07/09 07:20:04;;;;;;;10.20;3.78;;;;;;;18.58;67.96;101753.81;5063098;28;20048;-73
2022/07/09 07:23:07;;;;;;;8.93;2.97;;;;;;;18.50;68.65;101756.09;5065814;28;20116;-74
2022/07/09 07:26:11;;;;;;;7.07;3.15;;;;;;;18.50;68.53;101745.50;5066982;28;20047;-74
2022/07/09 07:29:14;;;;;;;7.28;2.65;;;;;;;18.59;67.69;101752.84;5067422;28;20035;-74
2022/07/09 07:32:17;;;;;;;11.63;2.95;;;;;;;18.72;67.93;101745.81;5067638;28;20035;-73
2022/07/09 07:35:21;;;;;;;10.95;2.33;;;;;;;18.78;66.80;101739.25;5057974;28;20093;-73
2022/07/09 07:38:27;;;;;;;9.40;2.58;;;;;;;18.92;66.75;101739.19;5058485;28;20097;-73
2022/07/09 07:41:31;;;;;;;6.28;2.60;;;;;;;18.95;66.04;101746.06;5059089;28;20142;-73
2022/07/09 07:44:34;;;;;;;5.00;1.77;;;;;;;18.86;66.02;101741.38;5059569;28;20040;-73
2022/07/09 07:47:38;;;;;;;6.65;1.98;;;;;;;18.86;66.71;101749.31;5062335;28;20048;-73
2022/07/09 07:50:42;;;;;;;7.93;2.85;;;;;;;18.99;65.92;101745.75;5056682;28;20090;-73
2022/07/09 07:53:45;;;;;;;9.68;2.33;;;;;;;19.05;65.32;101734.72;5059387;28;20128;-73
2022/07/09 07:56:50;;;;;;;7.88;2.03;;;;;;;19.18;65.45;101731.25;5059315;28;20051;-73
2022/07/09 07:59:54;;;;;;;5.20;2.10;;;;;;;19.22;65.17;101733.56;5057439;28;20043;-73
2022/07/09 08:02:58;;;;;;;5.28;2.10;;;;;;;19.23;64.45;101729.09;5063014;28;20043;-73
2022/07/09 08:06:02;;;;;;;10.20;2.60;;;;;;;19.11;64.63;101728.13;5062103;28;20051;-73
2022/07/09 08:09:05;;;;;;;7.18;2.17;;;;;;;19.20;64.98;101730.16;5057057;28;20071;-73
2022/07/09 08:12:09;;;;;;;5.18;1.80;;;;;;;19.18;64.94;101726.78;5057412;28;20097;-73
2022/07/09 08:15:12;;;;;;;7.13;2.58;;;;;;;19.20;64.64;101724.84;5056943;28;20038;-73
2022/07/09 08:18:15;;;;;;;6.95;2.67;;;;;;;19.17;64.27;101722.41;5056867;28;20063;-73
2022/07/09 08:21:19;;;;;;;9.57;2.65;;;;;;;19.22;64.62;101728.25;5057911;28;20134;-73
2022/07/09 08:24:23;;;;;;;7.88;2.75;;;;;;;19.31;64.44;101716.16;5057927;28;20425;-73
2022/07/09 08:27:26;;;;;;;6.97;2.72;;;;;;;19.36;63.94;101716.66;5057297;28;20090;-73
2022/07/09 08:30:30;;;;;;;7.30;2.30;;;;;;;19.29;63.44;101708.28;5058568;28;20040;-73
2022/07/09 08:33:33;;;;;;;7.63;2.38;;;;;;;19.41;63.35;101716.34;5056924;28;20120;-73
2022/07/09 08:36:37;;;;;;;6.43;1.75;;;;;;;19.52;63.63;101708.47;5057053;28;20506;-74
2022/07/09 08:39:41;;;;;;;9.38;2.40;;;;;;;19.59;63.00;101709.75;5070316;28;20461;-73
2022/07/09 08:42:45;;;;;;;5.90;2.22;;;;;;;19.66;63.01;101705.72;5059668;28;20082;-73
2022/07/09 08:45:50;;;;;;;6.93;2.40;;;;;;;19.97;61.94;101709.66;5057949;28;20043;-73
2022/07/09 08:48:54;;;;;;;7.55;1.92;;;;;;;20.29;61.20;101710.88;5050085;28;20050;-74
2022/07/09 08:51:58;;;;;;;8.40;2.47;;;;;;;20.45;59.06;101698.16;5066516;28;20042;-72
2022/07/09 08:55:02;;;;;;;7.93;2.45;;;;;;;20.40;58.75;101701.16;5065586;28;20048;-73
2022/07/09 08:58:06;;;;;;;6.13;2.03;;;;;;;20.45;58.08;101692.81;5066667;28;20055;-74
2022/07/09 09:01:13;;;;;;;8.10;2.35;;;;;;;20.53;57.29;101694.97;5049352;28;20411;-73
2022/07/09 09:04:17;;;;;;;5.22;1.95;;;;;;;20.48;58.11;101687.28;5070997;28;20097;-73
2022/07/09 09:07:23;;;;;;;4.45;1.65;;;;;;;20.34;57.75;101685.69;5070506;28;20048;-74
2022/07/09 09:10:27;;;;;;;5.20;1.85;;;;;;;20.44;58.35;101685.84;5070483;28;20190;-74
2022/07/09 09:13:37;;;;;;;5.22;2.00;;;;;;;20.49;58.71;101678.38;5060921;28;20094;-74
2022/07/09 09:16:43;;;;;;;10.20;2.22;;;;;;;20.62;58.37;101683.63;5050652;28;20519;-73
2022/07/09 09:19:47;;;;;;;7.18;2.15;;;;;;;20.71;57.70;101676.75;5046996;28;20051;-73
2022/07/09 09:22:54;;;;;;;4.30;1.50;;;;;;;20.82;57.71;101666.16;5046963;28;20499;-73
2022/07/09 09:26:10;;;;;;;3.58;1.40;;;;;;;20.90;59.32;101667.25;5046886;28;20044;-73
2022/07/09 09:29:13;;;;;;;9.32;1.80;;;;;;;20.60;58.01;101664.28;5046637;28;20436;-73
2022/07/09 09:32:21;;;;;;;5.03;1.42;;;;;;;20.57;58.67;101670.69;5046771;28;20075;-74
2022/07/09 09:35:27;;;;;;;6.60;2.05;;;;;;;20.47;59.03;101674.97;5048796;28;20052;-74
2022/07/09 09:38:30;;;;;;;4.88;2.10;;;;;;;20.44;59.58;101670.75;5047933;28;20040;-73
2022/07/09 09:41:34;;;;;;;7.85;1.90;;;;;;;20.54;60.48;101660.28;5048158;28;20044;-73
2022/07/09 09:44:43;;;;;;;6.47;2.00;;;;;;;20.64;60.27;101666.63;5049456;28;20102;-73
2022/07/09 09:47:51;;;;;;;5.60;1.48;;;;;;;20.93;59.55;101658.19;5047298;28;20036;-73
2022/07/09 09:51:00;;;;;;;6.30;1.77;;;;;;;21.19;58.62;101676.56;5049173;28;20123;-73
2022/07/09 09:54:05;;;;;;;5.35;1.27;;;;;;;21.25;55.73;101662.75;5038832;28;20071;-73
2022/07/09 09:57:13;;;;;;;4.10;1.20;;;;;;;21.42;55.44;101657.00;5046452;28;20111;-73
2022/07/09 10:00:18;;;;;;;3.55;1.48;;;;;;;21.26;55.29;101657.34;5048269;28;20487;-73
2022/07/09 10:03:23;;;;;;;8.55;1.50;;;;;;;21.57;56.64;101654.94;5047530;28;20507;-74
2022/07/09 10:06:27;;;;;;;6.18;1.55;;;;;;;21.73;55.11;101643.84;5040986;28;20105;-73
2022/07/09 10:09:30;;;;;;;5.90;1.40;;;;;;;21.63;55.13;101649.06;5039450;28;20086;-74
2022/07/09 10:12:35;;;;;;;3.38;1.02;;;;;;;21.59;53.69;101637.84;5027987;28;20117;-77
2022/07/09 10:15:48;;;;;;;4.63;0.98;;;;;;;21.88;52.36;101639.09;5041911;28;20074;-75
2022/07/09 10:18:52;;;;;;;4.53;1.15;;;;;;;21.90;51.52;101635.34;5051666;28;20107;-75
2022/07/09 10:34:06;;;;;;;3.20;1.00;;;;;;;22.06;52.24;101621.59;5042125;28;20407;-75
2022/07/09 10:37:10;;;;;;;3.30;1.17;;;;;;;22.36;51.72;101620.84;5039864;28;20044;-75
2022/07/09 10:40:19;;;;;;;4.15;1.20;;;;;;;22.39;50.60;101615.25;5039264;28;20120;-74
2022/07/09 10:43:47;;;;;;;4.85;1.35;;;;;;;22.34;51.81;101609.50;5019571;28;20045;-74
2022/07/09 10:46:58;;;;;;;6.10;1.73;;;;;;;22.14;51.21;101608.47;5021688;28;20416;-74
2022/07/09 10:50:04;;;;;;;5.60;1.35;;;;;;;22.09;52.13;101601.84;5035820;28;20052;-74
2022/07/09 10:53:11;;;;;;;6.18;1.48;;;;;;;22.16;51.14;101592.41;5042903;28;20110;-74
2022/07/09 10:56:22;;;;;;;5.65;1.63;;;;;;;22.08;51.66;101600.13;5042769;28;20431;-73
2022/07/09 10:59:32;;;;;;;5.03;1.60;;;;;;;22.00;51.98;101592.81;5042771;28;20106;-73
2022/07/09 11:02:35;;;;;;;5.03;1.52;;;;;;;22.09;51.06;101581.38;5042167;28;20072;-74
2022/07/09 11:05:46;;;;;;;5.03;1.10;;;;;;;22.30;50.83;101592.06;5021452;28;20743;-74
2022/07/09 11:08:49;;;;;;;3.42;1.10;;;;;;;22.71;49.27;101582.31;5021122;28;20036;-74
2022/07/09 11:11:56;;;;;;;3.85;1.08;;;;;;;22.58;49.42;101579.03;5021675;28;20128;-74
2022/07/09 11:15:01;;;;;;;2.80;1.10;;;;;;;22.53;50.13;101587.44;5021742;28;20103;-74
2022/07/09 11:18:06;;;;;;;3.90;1.05;;;;;;;22.42;50.10;101584.84;5030307;28;20064;-75
2022/07/09 11:21:09;;;;;;;4.28;1.55;;;;;;;22.48;50.28;101571.00;5042269;28;20441;-74
2022/07/09 11:24:14;;;;;;;4.75;1.60;;;;;;;22.71;49.53;101574.34;5042164;28;20043;-74
2022/07/09 11:27:17;;;;;;;4.55;1.73;;;;;;;22.50;49.53;101569.91;5030893;28;20049;-74
2022/07/09 11:30:21;;;;;;;4.35;1.30;;;;;;;22.64;50.31;101570.50;5022757;28;20068;-74
2022/07/09 11:33:24;;;;;;;5.55;1.25;;;;;;;22.65;48.46;101566.88;5032856;28;20048;-74
2022/07/09 11:36:38;;;;;;;3.03;1.27;;;;;;;22.60;49.12;101564.63;5028640;28;20172;-74
2022/07/09 11:39:51;;;;;;;3.28;1.23;;;;;;;22.72;48.81;101563.56;5027707;28;20167;-73
2022/07/09 11:42:55;;;;;;;3.30;1.13;;;;;;;22.62;48.27;101562.66;5028266;28;20031;-72
2022/07/09 11:45:59;;;;;;;4.22;1.20;;;;;;;22.62;48.33;101561.78;5026440;28;20165;-74
2022/07/09 11:49:14;;;;;;;3.95;1.17;;;;;;;22.57;49.05;101554.22;5027071;28;20098;-73
2022/07/09 11:52:25;;;;;;;2.58;1.10;;;;;;;22.70;47.63;101554.00;5028724;28;20134;-72
2022/07/09 11:55:31;;;;;;;3.28;1.20;;;;;;;22.89;47.41;101548.72;5028567;28;20068;-72
2022/07/09 11:58:34;;;;;;;4.43;1.25;;;;;;;23.31;46.99;101537.91;5027964;28;20112;-72
2022/07/09 12:01:38;;;;;;;2.35;1.10;;;;;;;23.38;45.71;101543.53;5027670;28;20124;-72
2022/07/09 12:04:45;;;;;;;2.88;1.38;;;;;;;23.18;46.03;101540.00;5024487;28;20080;-73
2022/07/09 12:07:52;;;;;;;6.13;1.23;;;;;;;23.03;46.88;101542.19;5027173;28;20511;-73
2022/07/09 12:10:56;;;;;;;3.88;1.50;;;;;;;23.27;46.45;101539.16;5028338;28;20048;-72
2022/07/09 12:14:01;;;;;;;5.82;1.83;;;;;;;23.32;46.43;101536.06;5028606;28;20045;-74
2022/07/09 12:17:05;;;;;;;2.65;1.40;;;;;;;23.34;45.43;101534.13;5008854;28;20072;-73
2022/07/09 12:20:09;;;;;;;7.70;1.65;;;;;;;23.25;45.05;101525.09;5008953;28;20123;-73
2022/07/09 12:23:14;;;;;;;2.67;1.17;;;;;;;23.34;46.29;101516.28;5008303;28;20080;-74
2022/07/09 12:26:18;;;;;;;4.15;1.70;;;;;;;23.20;45.90;101524.69;5007968;28;20141;-73
2022/07/09 12:29:23;;;;;;;4.90;1.20;;;;;;;23.61;45.36;101512.94;5015133;28;20064;-74
2022/07/09 12:32:27;;;;;;;2.92;1.27;;;;;;;23.77;44.80;101509.72;5027736;28;20048;-74
2022/07/09 12:35:36;;;;;;;4.43;1.50;;;;;;;23.54;45.77;101505.59;5027566;28;20053;-74
2022/07/09 12:38:39;;;;;;;5.68;1.60;;;;;;;23.11;47.01;101505.03;5028239;28;20067;-73
2022/07/09 12:41:42;;;;;;;3.78;2.22;;;;;;;23.10;45.53;101500.66;5008563;28;20562;-73
2022/07/09 12:45:12;;;;;;;4.28;1.63;;;;;;;23.19;45.16;101489.13;5022383;28;20836;-73
2022/07/09 12:48:15;;;;;;;5.47;1.52;;;;;;;23.66;44.46;101493.78;5027288;28;20125;-74
2022/07/09 12:51:19;;;;;;;1.92;1.02;;;;;;;23.47;44.71;101483.97;5027374;28;20101;-75
2022/07/09 12:54:23;;;;;;;5.60;1.55;;;;;;;23.20;45.71;101493.53;5027658;28;20129;-74
2022/07/09 12:57:30;;;;;;;3.15;1.30;;;;;;;23.13;45.71;101478.19;5025576;28;20103;-73
2022/07/09 13:00:37;;;;;;;4.25;1.40;;;;;;;23.19;46.24;101475.81;5025116;28;20048;-74
2022/07/09 13:03:41;;;;;;;4.43;1.25;;;;;;;22.96;46.42;101472.56;5027240;28;20625;-73
2022/07/09 13:06:45;;;;;;;3.55;1.50;;;;;;;22.94;47.21;101479.88;5017621;28;20059;-73
2022/07/09 13:09:48;;;;;;;4.30;1.38;;;;;;;22.91;46.91;101472.09;5013590;28;20118;-74
2022/07/09 13:12:52;;;;;;;2.78;1.17;;;;;;;22.93;46.12;101471.97;5017512;28;20082;-73
2022/07/09 13:15:56;;;;;;;3.72;1.45;;;;;;;22.90;48.85;101470.41;5021609;28;20048;-74
2022/07/09 13:19:00;;;;;;;6.53;1.40;;;;;;;22.94;45.64;101471.88;5028159;28;20453;-74
2022/07/09 13:22:04;;;;;;;4.00;1.10;;;;;;;22.97;46.37;101466.25;5027786;28;20066;-74
2022/07/09 13:25:08;;;;;;;3.13;1.13;;;;;;;23.05;47.34;101457.56;5026512;28;20052;-74
2022/07/09 13:28:13;;;;;;;4.97;1.20;;;;;;;22.94;45.80;101461.19;5026260;28;20093;-73
2022/07/09 13:31:16;;;;;;;3.88;1.52;;;;;;;23.01;46.57;101449.97;5027019;28;20098;-74
2022/07/09 13:34:20;;;;;;;5.40;2.42;;;;;;;23.23;46.56;101449.72;5025208;28;20051;-74
2022/07/09 13:37:23;;;;;;;4.18;3.15;;;;;;;23.48;44.78;101436.75;5025316;28;20109;-73
2022/07/09 13:40:26;;;;;;;16.27;12.80;;;;;;;23.79;44.28;101446.31;5024423;28;20044;-73
2022/07/09 13:43:30;;;;;;;7.28;3.90;;;;;;;24.02;44.91;101436.09;5005942;28;20041;-73
2022/07/09 13:46:34;;;;;;;4.50;1.90;;;;;;;23.83;43.18;101430.81;5005947;28;20052;-73
2022/07/09 13:49:37;;;;;;;3.65;1.20;;;;;;;23.60;44.88;101422.28;5005484;28;20106;-73
2022/07/09 13:52:40;;;;;;;2.63;1.13;;;;;;;24.70;42.28;101425.16;5006813;28;20049;-74
2022/07/09 13:55:44;;;;;;;2.60;1.13;;;;;;;25.24;42.35;101412.66;5022020;28;20128;-73
2022/07/09 13:58:47;;;;;;;3.83;1.10;;;;;;;25.11;41.42;101404.16;5026957;28;20048;-73
2022/07/09 14:01:50;;;;;;;4.05;1.63;;;;;;;25.58;40.34;101401.19;5025240;28;20068;-73
2022/07/09 14:04:54;;;;;;;3.42;1.63;;;;;;;25.92;40.73;101405.78;5026497;28;20076;-73
2022/07/09 14:08:00;;;;;;;4.72;1.30;;;;;;;25.27;41.11;101396.28;5025282;28;20053;-73
2022/07/09 14:11:04;;;;;;;3.33;1.65;;;;;;;24.64;41.54;101396.34;5013013;28;20041;-73
2022/07/09 14:14:07;;;;;;;4.75;1.50;;;;;;;24.50;42.48;101386.13;5006549;28;20295;-73
2022/07/09 14:17:10;;;;;;;4.60;0.80;;;;;;;24.55;41.41;101381.19;5005204;28;20057;-73
2022/07/09 14:20:15;;;;;;;3.10;1.30;;;;;;;24.23;42.01;101378.94;5004531;28;20048;-73
2022/07/09 14:23:18;;;;;;;2.85;1.00;;;;;;;24.21;42.21;101372.91;5016219;28;20037;-73
2022/07/09 14:26:23;;;;;;;2.67;0.90;;;;;;;24.25;42.60;101377.81;5023014;28;20073;-73
2022/07/09 14:29:26;;;;;;;2.75;0.80;;;;;;;24.04;42.70;101363.84;5024133;28;20506;-72
2022/07/09 14:32:30;;;;;;;4.15;0.93;;;;;;;23.96;43.04;101366.41;5023506;28;20511;-73